createdAt,value
2017-11-26T00:00:10.039Z,92.66
2017-11-26T00:00:36.154Z,93.32
2017-11-26T00:01:02.273Z,92.76
2017-11-26T00:01:28.401Z,92.57
2017-11-26T00:01:54.524Z,92.47
2017-11-26T00:02:20.637Z,92.47
2017-11-26T00:02:46.759Z,93.13
2017-11-26T00:03:12.877Z,92.47
2017-11-26T00:03:38.999Z,92.85
2017-11-26T00:04:05.116Z,93.04
2017-11-26T00:04:31.261Z,92.57
2017-11-26T00:04:57.360Z,92.66
2017-11-26T00:05:23.507Z,92.94
2017-11-26T00:05:49.624Z,92.94
2017-11-26T00:06:15.744Z,92.85
2017-11-26T00:06:41.865Z,93.18
2017-11-26T00:07:07.992Z,93.18
2017-11-26T00:07:34.111Z,92.94
2017-11-26T00:08:00.232Z,93.27
2017-11-26T00:08:26.349Z,93.18
2017-11-26T00:08:52.464Z,93.08
2017-11-26T00:09:18.590Z,93.65
2017-11-26T00:09:44.707Z,93.46
2017-11-26T00:10:10.850Z,93.61
2017-11-26T00:10:36.967Z,93.7
2017-11-26T00:11:03.101Z,93.23
2017-11-26T00:11:29.255Z,93.23
2017-11-26T00:11:55.365Z,93.23
2017-11-26T00:12:21.488Z,93.51
2017-11-26T00:12:47.619Z,93.13
2017-11-26T00:13:13.741Z,93.04
2017-11-26T00:13:39.862Z,93.13
2017-11-26T00:14:05.974Z,93.41
2017-11-26T00:14:32.122Z,93.27
2017-11-26T00:14:58.265Z,93.51
2017-11-26T00:15:24.379Z,93.51
2017-11-26T00:15:50.499Z,93.32
2017-11-26T00:16:16.626Z,93.89
2017-11-26T00:16:42.746Z,93.84
2017-11-26T00:17:08.886Z,93.13
2017-11-26T00:17:35.002Z,93.75
2017-11-26T00:18:01.135Z,93.84
2017-11-26T00:18:27.258Z,93.8
2017-11-26T00:18:53.372Z,93.84
2017-11-26T00:19:19.496Z,94.23
2017-11-26T00:19:45.619Z,94.32
2017-11-26T00:20:11.737Z,94.04
2017-11-26T00:20:37.855Z,94.04
2017-11-26T00:21:03.974Z,94.42
2017-11-26T00:21:30.097Z,94.6
2017-11-26T00:21:56.214Z,94.51
2017-11-26T00:22:22.338Z,94.51
2017-11-26T00:22:48.447Z,94.51
2017-11-26T00:23:14.606Z,94.04
2017-11-26T00:23:40.700Z,94.27
2017-11-26T00:24:06.819Z,94.08
2017-11-26T00:24:32.945Z,94.04
2017-11-26T00:24:59.060Z,94.13
2017-11-26T00:25:25.212Z,94.6
2017-11-26T00:25:51.335Z,94.42
2017-11-26T00:26:17.450Z,94.42
2017-11-26T00:26:43.579Z,94.6
2017-11-26T00:27:09.694Z,94.23
2017-11-26T00:27:35.816Z,94.46
2017-11-26T00:28:01.936Z,94.27
2017-11-26T00:28:28.052Z,94.04
2017-11-26T00:28:54.180Z,94.37
2017-11-26T00:29:20.303Z,93.89
2017-11-26T00:29:46.433Z,93.89
2017-11-26T00:30:12.580Z,93.89
2017-11-26T00:30:38.707Z,93.89
2017-11-26T00:31:04.826Z,94.08
2017-11-26T00:31:30.934Z,93.89
2017-11-26T00:31:57.079Z,93.7
2017-11-26T00:32:23.201Z,93.32
2017-11-26T00:32:49.317Z,93.61
2017-11-26T00:33:15.470Z,93.04
2017-11-26T00:33:41.578Z,93.32
2017-11-26T00:34:07.726Z,93.41
2017-11-26T00:34:33.843Z,92.85
2017-11-26T00:34:59.958Z,93.13
2017-11-26T00:35:26.086Z,92.85
2017-11-26T00:35:52.200Z,93.13
2017-11-26T00:36:18.323Z,93.7
2017-11-26T00:36:44.439Z,93.7
2017-11-26T00:37:10.564Z,93.13
2017-11-26T00:37:36.685Z,93.7
2017-11-26T00:38:02.806Z,93.32
2017-11-26T00:38:28.928Z,93.61
2017-11-26T00:38:55.042Z,93.23
2017-11-26T00:39:21.179Z,93.04
2017-11-26T00:39:47.302Z,93.23
2017-11-26T00:40:13.422Z,93.13
2017-11-26T00:40:39.558Z,93.23
2017-11-26T00:41:05.681Z,93.13
2017-11-26T00:41:31.819Z,93.51
2017-11-26T00:41:57.943Z,93.32
2017-11-26T00:42:24.079Z,93.41
2017-11-26T00:42:50.230Z,93.04
2017-11-26T00:43:16.344Z,92.94
2017-11-26T00:43:42.458Z,93.13
2017-11-26T00:44:08.584Z,93.23
2017-11-26T00:44:34.697Z,93.18
2017-11-26T00:45:00.828Z,93.23
2017-11-26T00:45:26.943Z,93.04
2017-11-26T00:45:53.069Z,93.7
2017-11-26T00:46:19.211Z,93.89
2017-11-26T00:46:45.330Z,93.23
2017-11-26T00:47:11.445Z,93.7
2017-11-26T00:47:37.566Z,93.32
2017-11-26T00:48:03.680Z,93.41
2017-11-26T00:48:29.799Z,93.51
2017-11-26T00:48:55.925Z,93.7
2017-11-26T00:49:22.043Z,93.41
2017-11-26T00:49:48.173Z,93.61
2017-11-26T00:50:14.286Z,93.13
2017-11-26T00:50:40.415Z,93.13
2017-11-26T00:51:06.533Z,93.13
2017-11-26T00:51:32.649Z,93.13
2017-11-26T00:51:58.781Z,93.13
2017-11-26T00:52:24.900Z,93.23
2017-11-26T00:52:51.015Z,93.04
2017-11-26T00:53:17.133Z,93.23
2017-11-26T00:53:43.260Z,92.94
2017-11-26T00:54:09.392Z,93.13
2017-11-26T00:54:35.558Z,93.13
2017-11-26T00:55:01.730Z,93.04
2017-11-26T00:55:27.912Z,93.13
2017-11-26T00:55:54.055Z,92.94
2017-11-26T00:56:20.180Z,93.04
2017-11-26T00:56:46.307Z,92.94
2017-11-26T00:57:12.456Z,92.76
2017-11-26T00:57:38.598Z,93.23
2017-11-26T00:58:04.727Z,93.13
2017-11-26T00:58:30.869Z,92.76
2017-11-26T00:58:56.970Z,93.13
2017-11-26T00:59:23.109Z,92.38
2017-11-26T00:59:49.264Z,92.94
2017-11-26T01:00:15.378Z,92.57
2017-11-26T01:00:41.504Z,92.76
2017-11-26T01:01:07.691Z,92.94
2017-11-26T01:01:33.866Z,93.32
2017-11-26T01:01:59.971Z,92.94
2017-11-26T01:02:26.095Z,92.85
2017-11-26T01:02:52.253Z,93.13
2017-11-26T01:03:18.402Z,92.94
2017-11-26T01:03:44.542Z,93.04
2017-11-26T01:04:10.669Z,93.32
2017-11-26T01:04:36.793Z,93.41
2017-11-26T01:05:02.953Z,93.61
2017-11-26T01:05:29.080Z,93.51
2017-11-26T01:05:55.199Z,93.23
2017-11-26T01:06:21.322Z,93.32
2017-11-26T01:06:47.432Z,93.32
2017-11-26T01:07:13.549Z,93.13
2017-11-26T01:07:39.674Z,93.04
2017-11-26T01:08:05.801Z,93.13
2017-11-26T01:08:31.942Z,93.04
2017-11-26T01:08:58.068Z,93.23
2017-11-26T01:09:24.188Z,93.41
2017-11-26T01:09:50.331Z,93.41
2017-11-26T01:10:16.447Z,93.13
2017-11-26T01:10:42.564Z,93.23
2017-11-26T01:11:08.686Z,93.23
2017-11-26T01:11:34.813Z,93.13
2017-11-26T01:12:00.947Z,93.41
2017-11-26T01:12:27.067Z,93.13
2017-11-26T01:12:53.222Z,93.04
2017-11-26T01:13:19.341Z,93.61
2017-11-26T01:13:45.478Z,93.7
2017-11-26T01:14:11.624Z,93.23
2017-11-26T01:14:37.742Z,93.41
2017-11-26T01:15:03.884Z,93.23
2017-11-26T01:15:30.000Z,93.89
2017-11-26T01:15:56.120Z,93.89
2017-11-26T01:16:22.238Z,94.23
2017-11-26T01:16:48.360Z,94.13
2017-11-26T01:17:14.495Z,94.23
2017-11-26T01:17:40.602Z,94.6
2017-11-26T01:18:06.716Z,94.51
2017-11-26T01:18:32.854Z,94.32
2017-11-26T01:18:58.969Z,94.23
2017-11-26T01:19:25.101Z,94.23
2017-11-26T01:19:51.233Z,94.42
2017-11-26T01:20:17.373Z,94.13
2017-11-26T01:20:43.506Z,94.18
2017-11-26T01:21:09.623Z,94.08
2017-11-26T01:21:35.749Z,94.08
2017-11-26T01:22:01.878Z,94.27
2017-11-26T01:22:28.011Z,93.89
2017-11-26T01:22:54.201Z,93.89
2017-11-26T01:23:20.366Z,93.23
2017-11-26T01:23:46.568Z,93.13
2017-11-26T01:24:12.721Z,93.32
2017-11-26T01:24:38.838Z,93.89
2017-11-26T01:25:04.955Z,93.08
2017-11-26T01:25:31.076Z,93.51
2017-11-26T01:25:57.195Z,93.8
2017-11-26T01:26:23.344Z,94.32
2017-11-26T01:26:49.500Z,93.94
2017-11-26T01:27:15.666Z,94.04
2017-11-26T01:27:41.826Z,93.99
2017-11-26T01:28:07.967Z,94.04
2017-11-26T01:28:34.081Z,93.75
2017-11-26T01:29:00.206Z,94.04
2017-11-26T01:29:26.344Z,94.42
2017-11-26T01:29:52.476Z,94.42
2017-11-26T01:30:18.601Z,94.51
2017-11-26T01:30:44.716Z,94.6
2017-11-26T01:31:10.862Z,94.6
2017-11-26T01:31:36.978Z,94.79
2017-11-26T01:32:03.104Z,94.79
2017-11-26T01:32:29.240Z,94.7
2017-11-26T01:32:55.358Z,94.89
2017-11-26T01:33:21.484Z,94.6
2017-11-26T01:33:47.599Z,94.89
2017-11-26T01:34:13.723Z,95.36
2017-11-26T01:34:39.841Z,95.84
2017-11-26T01:35:05.980Z,95.55
2017-11-26T01:35:32.103Z,95.74
2017-11-26T01:35:58.221Z,95.55
2017-11-26T01:36:24.347Z,95.65
2017-11-26T01:36:50.468Z,95.55
2017-11-26T01:37:16.590Z,95.36
2017-11-26T01:37:42.707Z,95.17
2017-11-26T01:38:08.827Z,95.36
2017-11-26T01:38:34.987Z,95.45
2017-11-26T01:39:02.451Z,95.17
2017-11-26T01:39:28.588Z,95.55
2017-11-26T01:39:54.728Z,95.26
2017-11-26T01:40:20.848Z,95.65
2017-11-26T01:40:46.971Z,95.93
2017-11-26T01:41:13.092Z,95.65
2017-11-26T01:41:40.221Z,96.03
2017-11-26T01:42:06.347Z,96.31
2017-11-26T01:42:32.461Z,96.31
2017-11-26T01:42:58.577Z,96.22
2017-11-26T01:43:24.695Z,95.84
2017-11-26T01:43:50.842Z,95.74
2017-11-26T01:44:16.984Z,95.36
2017-11-26T01:44:43.101Z,95.55
2017-11-26T01:45:09.224Z,95.65
2017-11-26T01:45:35.341Z,95.93
2017-11-26T01:46:01.482Z,95.93
2017-11-26T01:46:27.608Z,96.22
2017-11-26T01:46:53.724Z,95.55
2017-11-26T01:47:19.842Z,96.03
2017-11-26T01:47:45.981Z,95.55
2017-11-26T01:48:12.099Z,95.65
2017-11-26T01:48:38.224Z,95.74
2017-11-26T01:49:04.346Z,96.03
2017-11-26T01:49:30.462Z,96.22
2017-11-26T01:49:56.588Z,96.03
2017-11-26T01:50:22.702Z,96.31
2017-11-26T01:50:48.841Z,96.03
2017-11-26T01:51:14.965Z,96.41
2017-11-26T01:51:41.089Z,96.22
2017-11-26T01:52:07.212Z,96.41
2017-11-26T01:52:33.320Z,96.12
2017-11-26T01:52:59.448Z,96.12
2017-11-26T01:53:25.564Z,96.22
2017-11-26T01:53:51.690Z,95.65
2017-11-26T01:54:17.808Z,96.31
2017-11-26T01:54:43.948Z,95.93
2017-11-26T01:55:10.094Z,96.12
2017-11-26T01:55:36.212Z,95.84
2017-11-26T01:56:02.338Z,96.12
2017-11-26T01:56:28.450Z,96.31
2017-11-26T01:56:54.576Z,96.31
2017-11-26T01:57:20.691Z,96.31
2017-11-26T01:57:46.806Z,96.31
2017-11-26T01:58:12.931Z,96.12
2017-11-26T01:58:39.057Z,96.31
2017-11-26T01:59:05.194Z,96.12
2017-11-26T01:59:31.312Z,96.69
2017-11-26T01:59:57.430Z,96.31
2017-11-26T02:00:23.556Z,96.12
2017-11-26T02:00:49.691Z,96.22
2017-11-26T02:01:15.810Z,96.31
2017-11-26T02:01:41.932Z,96.59
2017-11-26T02:02:08.074Z,96.22
2017-11-26T02:02:34.192Z,96.31
2017-11-26T02:03:00.323Z,96.22
2017-11-26T02:03:26.438Z,96.22
2017-11-26T02:03:52.555Z,96.5
2017-11-26T02:04:18.674Z,96.5
2017-11-26T02:04:44.786Z,96.5
2017-11-26T02:05:10.930Z,96.22
2017-11-26T02:05:37.052Z,95.93
2017-11-26T02:06:03.173Z,96.12
2017-11-26T02:06:29.295Z,95.93
2017-11-26T02:06:55.422Z,95.93
2017-11-26T02:07:21.538Z,96.41
2017-11-26T02:07:47.655Z,96.03
2017-11-26T02:08:13.777Z,95.74
2017-11-26T02:08:39.922Z,95.74
2017-11-26T02:09:06.044Z,95.84
2017-11-26T02:09:32.156Z,95.65
2017-11-26T02:09:58.296Z,95.74
2017-11-26T02:10:24.434Z,95.36
2017-11-26T02:10:50.580Z,95.74
2017-11-26T02:11:16.698Z,95.55
2017-11-26T02:11:42.816Z,95.93
2017-11-26T02:12:08.944Z,95.17
2017-11-26T02:12:35.080Z,95.84
2017-11-26T02:13:01.180Z,96.03
2017-11-26T02:13:27.307Z,95.93
2017-11-26T02:13:53.424Z,95.84
2017-11-26T02:14:19.548Z,95.55
2017-11-26T02:14:45.664Z,95.55
2017-11-26T02:15:11.784Z,95.84
2017-11-26T02:15:37.906Z,95.74
2017-11-26T02:16:04.028Z,95.84
2017-11-26T02:16:30.142Z,95.74
2017-11-26T02:16:56.266Z,95.55
2017-11-26T02:17:22.382Z,95.93
2017-11-26T02:17:48.500Z,96.22
2017-11-26T02:18:14.626Z,96.31
2017-11-26T02:18:40.741Z,96.22
2017-11-26T02:19:06.864Z,96.31
2017-11-26T02:19:32.990Z,95.93
2017-11-26T02:19:59.107Z,95.65
2017-11-26T02:20:25.223Z,95.93
2017-11-26T02:20:51.372Z,95.65
2017-11-26T02:21:17.493Z,95.74
2017-11-26T02:21:43.614Z,95.65
2017-11-26T02:22:09.738Z,95.31
2017-11-26T02:22:35.872Z,95.36
2017-11-26T02:23:01.985Z,94.79
2017-11-26T02:23:28.094Z,94.42
2017-11-26T02:23:54.216Z,95.93
2017-11-26T02:24:20.334Z,95.36
2017-11-26T02:24:46.452Z,95.45
2017-11-26T02:25:12.575Z,95.41
2017-11-26T02:25:38.696Z,95.12
2017-11-26T02:26:04.819Z,95.5
2017-11-26T02:26:30.938Z,94.56
2017-11-26T02:26:57.053Z,94.65
2017-11-26T02:27:23.178Z,94.93
2017-11-26T02:27:49.304Z,94.65
2017-11-26T02:28:15.425Z,95.03
2017-11-26T02:28:41.541Z,95.03
2017-11-26T02:29:07.660Z,94.23
2017-11-26T02:29:33.777Z,94.56
2017-11-26T02:29:59.902Z,94.27
2017-11-26T02:30:26.025Z,94.46
2017-11-26T02:30:52.138Z,94.27
2017-11-26T02:31:18.261Z,94.46
2017-11-26T02:31:44.378Z,94.56
2017-11-26T02:32:10.501Z,94.27
2017-11-26T02:32:36.623Z,94.18
2017-11-26T02:33:02.741Z,94.08
2017-11-26T02:33:28.877Z,93.99
2017-11-26T02:33:55.008Z,94.46
2017-11-26T02:34:21.122Z,94.65
2017-11-26T02:34:47.244Z,94.84
2017-11-26T02:35:13.365Z,94.46
2017-11-26T02:35:39.513Z,94.65
2017-11-26T02:36:05.632Z,94.27
2017-11-26T02:36:31.769Z,93.99
2017-11-26T02:36:57.885Z,94.04
2017-11-26T02:37:24.012Z,94.27
2017-11-26T02:37:50.124Z,94.27
2017-11-26T02:38:16.250Z,94.56
2017-11-26T02:38:42.371Z,94.27
2017-11-26T02:39:08.492Z,94.08
2017-11-26T02:39:34.609Z,94.56
2017-11-26T02:40:00.723Z,94.37
2017-11-26T02:40:26.848Z,94.65
2017-11-26T02:40:52.970Z,95.41
2017-11-26T02:41:19.080Z,96.36
2017-11-26T02:41:45.205Z,96.55
2017-11-26T02:42:11.333Z,97.02
2017-11-26T02:42:37.447Z,97.31
2017-11-26T02:43:03.592Z,97.35
2017-11-26T02:43:29.714Z,97.5
2017-11-26T02:43:55.833Z,97.64
2017-11-26T02:44:21.953Z,97.45
2017-11-26T02:44:48.072Z,97.12
2017-11-26T02:45:14.187Z,96.97
2017-11-26T02:45:40.304Z,97.45
2017-11-26T02:46:06.423Z,96.97
2017-11-26T02:46:32.546Z,97.07
2017-11-26T02:46:58.665Z,96.88
2017-11-26T02:47:24.832Z,96.78
2017-11-26T02:47:50.934Z,96.88
2017-11-26T02:48:17.077Z,96.97
2017-11-26T02:48:43.202Z,96.78
2017-11-26T02:49:09.324Z,96.78
2017-11-26T02:49:35.437Z,97.16
2017-11-26T02:50:01.559Z,96.69
2017-11-26T02:50:27.694Z,96.97
2017-11-26T02:50:53.834Z,97.07
2017-11-26T02:51:19.954Z,97.07
2017-11-26T02:51:46.077Z,97.07
2017-11-26T02:52:12.196Z,96.88
2017-11-26T02:52:38.311Z,96.78
2017-11-26T02:53:04.455Z,97.26
2017-11-26T02:53:30.600Z,97.45
2017-11-26T02:53:56.734Z,96.97
2017-11-26T02:54:22.852Z,96.97
2017-11-26T02:54:48.977Z,97.07
2017-11-26T02:55:15.089Z,97.64
2017-11-26T02:55:41.212Z,97.26
2017-11-26T02:56:07.332Z,96.78
2017-11-26T02:56:33.486Z,97.26
2017-11-26T02:56:59.602Z,96.78
2017-11-26T02:57:25.726Z,96.59
2017-11-26T02:57:51.848Z,96.97
2017-11-26T02:58:17.963Z,96.97
2017-11-26T02:58:44.085Z,97.07
2017-11-26T02:59:10.200Z,96.69
2017-11-26T02:59:36.329Z,96.88
2017-11-26T03:00:02.442Z,96.88
2017-11-26T03:00:28.562Z,96.78
2017-11-26T03:00:54.682Z,96.88
2017-11-26T03:01:20.810Z,97.26
2017-11-26T03:01:46.923Z,97.07
2017-11-26T03:02:13.045Z,96.88
2017-11-26T03:02:39.169Z,96.78
2017-11-26T03:03:05.284Z,96.78
2017-11-26T03:03:31.409Z,97.07
2017-11-26T03:03:57.531Z,97.26
2017-11-26T03:04:23.646Z,97.83
2017-11-26T03:04:49.773Z,97.92
2017-11-26T03:05:15.889Z,97.83
2017-11-26T03:05:42.008Z,97.73
2017-11-26T03:06:08.132Z,97.73
2017-11-26T03:06:34.246Z,97.73
2017-11-26T03:07:00.374Z,97.92
2017-11-26T03:07:26.490Z,97.64
2017-11-26T03:07:52.642Z,97.83
2017-11-26T03:08:18.760Z,97.73
2017-11-26T03:08:44.868Z,97.83
2017-11-26T03:09:10.992Z,97.45
2017-11-26T03:09:37.108Z,97.64
2017-11-26T03:10:03.237Z,97.35
2017-11-26T03:10:29.348Z,97.26
2017-11-26T03:10:55.469Z,97.07
2017-11-26T03:11:21.596Z,97.35
2017-11-26T03:11:47.731Z,97.73
2017-11-26T03:12:13.846Z,97.16
2017-11-26T03:12:39.976Z,97.54
2017-11-26T03:13:06.095Z,97.26
2017-11-26T03:13:32.245Z,97.92
2017-11-26T03:13:58.327Z,97.73
2017-11-26T03:14:24.451Z,97.35
2017-11-26T03:14:50.569Z,97.16
2017-11-26T03:15:16.692Z,97.54
2017-11-26T03:15:42.812Z,97.64
2017-11-26T03:16:08.934Z,97.92
2017-11-26T03:16:35.047Z,97.92
2017-11-26T03:17:01.184Z,98.02
2017-11-26T03:17:27.304Z,97.83
2017-11-26T03:17:53.431Z,97.26
2017-11-26T03:18:19.552Z,97.64
2017-11-26T03:18:45.677Z,96.88
2017-11-26T03:19:11.812Z,97.26
2017-11-26T03:19:37.928Z,97.45
2017-11-26T03:20:04.049Z,97.64
2017-11-26T03:20:30.172Z,97.83
2017-11-26T03:20:56.287Z,97.83
2017-11-26T03:21:22.405Z,97.45
2017-11-26T03:21:48.547Z,97.83
2017-11-26T03:22:14.663Z,97.92
2017-11-26T03:22:40.784Z,98.21
2017-11-26T03:23:06.912Z,98.39
2017-11-26T03:23:33.058Z,98.11
2017-11-26T03:23:59.169Z,98.11
2017-11-26T03:24:25.285Z,98.11
2017-11-26T03:24:51.404Z,98.11
2017-11-26T03:25:17.527Z,98.21
2017-11-26T03:25:43.653Z,98.11
2017-11-26T03:26:09.768Z,98.21
2017-11-26T03:26:35.892Z,98.39
2017-11-26T03:27:02.009Z,98.49
2017-11-26T03:27:28.126Z,98.02
2017-11-26T03:27:54.245Z,98.39
2017-11-26T03:28:20.378Z,97.83
2017-11-26T03:28:46.495Z,98.21
2017-11-26T03:29:12.615Z,98.39
2017-11-26T03:29:38.740Z,97.83
2017-11-26T03:30:04.864Z,98.68
2017-11-26T03:30:30.980Z,98.58
2017-11-26T03:30:57.104Z,98.11
2017-11-26T03:31:23.247Z,98.58
2017-11-26T03:31:49.364Z,98.21
2017-11-26T03:32:15.483Z,98.39
2017-11-26T03:32:41.617Z,98.11
2017-11-26T03:33:07.741Z,98.58
2017-11-26T03:33:33.885Z,98.58
2017-11-26T03:33:59.994Z,97.92
2017-11-26T03:34:26.118Z,98.11
2017-11-26T03:34:52.233Z,97.92
2017-11-26T03:35:18.360Z,98.3
2017-11-26T03:35:44.500Z,98.11
2017-11-26T03:36:10.636Z,98.21
2017-11-26T03:36:36.761Z,98.39
2017-11-26T03:37:02.903Z,97.83
2017-11-26T03:37:29.015Z,98.3
2017-11-26T03:37:55.132Z,98.02
2017-11-26T03:38:21.258Z,97.92
2017-11-26T03:38:47.375Z,97.73
2017-11-26T03:39:13.502Z,97.83
2017-11-26T03:39:39.623Z,98.39
2017-11-26T03:40:05.777Z,98.39
2017-11-26T03:40:31.899Z,98.3
2017-11-26T03:40:58.017Z,98.39
2017-11-26T03:41:24.138Z,98.39
2017-11-26T03:41:50.265Z,98.21
2017-11-26T03:42:16.386Z,98.3
2017-11-26T03:42:42.529Z,98.21
2017-11-26T03:43:08.645Z,98.39
2017-11-26T03:43:34.763Z,97.73
2017-11-26T03:44:00.883Z,97.83
2017-11-26T03:44:27.011Z,97.73
2017-11-26T03:44:53.124Z,97.83
2017-11-26T03:45:19.247Z,97.64
2017-11-26T03:45:45.388Z,97.73
2017-11-26T03:46:11.510Z,97.92
2017-11-26T03:46:37.628Z,97.64
2017-11-26T03:47:03.755Z,97.73
2017-11-26T03:47:29.877Z,97.83
2017-11-26T03:47:55.992Z,97.83
2017-11-26T03:48:22.116Z,97.73
2017-11-26T03:48:48.233Z,97.64
2017-11-26T03:49:14.363Z,97.73
2017-11-26T03:49:40.498Z,97.83
2017-11-26T03:50:06.615Z,98.11
2017-11-26T03:50:32.730Z,97.64
2017-11-26T03:50:58.857Z,97.83
2017-11-26T03:51:24.993Z,97.45
2017-11-26T03:51:51.118Z,97.83
2017-11-26T03:52:17.235Z,97.83
2017-11-26T03:52:43.354Z,97.83
2017-11-26T03:53:09.481Z,97.64
2017-11-26T03:53:35.602Z,97.73
2017-11-26T03:54:01.754Z,97.92
2017-11-26T03:54:27.844Z,97.73
2017-11-26T03:54:53.954Z,97.64
2017-11-26T03:55:20.095Z,97.45
2017-11-26T03:55:46.219Z,97.64
2017-11-26T03:56:12.343Z,97.83
2017-11-26T03:56:38.478Z,97.64
2017-11-26T03:57:04.608Z,97.16
2017-11-26T03:57:30.716Z,97.35
2017-11-26T03:57:56.837Z,97.64
2017-11-26T03:58:22.984Z,97.16
2017-11-26T03:58:49.099Z,97.07
2017-11-26T03:59:15.222Z,96.88
2017-11-26T03:59:41.346Z,97.26
2017-11-26T04:00:07.485Z,96.88
2017-11-26T04:00:33.602Z,97.35
2017-11-26T04:00:59.727Z,97.07
2017-11-26T04:01:25.849Z,97.35
2017-11-26T04:01:51.964Z,96.88
2017-11-26T04:02:18.085Z,97.54
2017-11-26T04:02:44.211Z,97.73
2017-11-26T04:03:10.338Z,97.83
2017-11-26T04:03:36.449Z,97.73
2017-11-26T04:04:02.578Z,97.92
2017-11-26T04:04:28.685Z,97.45
2017-11-26T04:04:54.805Z,97.64
2017-11-26T04:05:20.931Z,97.26
2017-11-26T04:05:47.075Z,97.26
2017-11-26T04:06:13.199Z,96.97
2017-11-26T04:06:39.314Z,97.16
2017-11-26T04:07:05.432Z,97.16
2017-11-26T04:07:31.549Z,97.73
2017-11-26T04:07:57.668Z,97.07
2017-11-26T04:08:23.788Z,97.26
2017-11-26T04:08:49.903Z,96.59
2017-11-26T04:09:16.048Z,96.78
2017-11-26T04:09:42.166Z,96.88
2017-11-26T04:10:08.299Z,96.97
2017-11-26T04:10:34.407Z,96.78
2017-11-26T04:11:00.532Z,96.97
2017-11-26T04:11:26.650Z,96.69
2017-11-26T04:11:52.770Z,96.88
2017-11-26T04:12:18.903Z,96.97
2017-11-26T04:12:45.035Z,96.97
2017-11-26T04:13:11.160Z,96.69
2017-11-26T04:13:37.274Z,96.78
2017-11-26T04:14:03.418Z,96.97
2017-11-26T04:14:29.542Z,97.07
2017-11-26T04:14:55.656Z,96.97
2017-11-26T04:15:21.781Z,96.78
2017-11-26T04:15:47.896Z,96.78
2017-11-26T04:16:14.022Z,96.88
2017-11-26T04:16:40.141Z,96.5
2017-11-26T04:17:06.261Z,96.03
2017-11-26T04:17:32.386Z,97.07
2017-11-26T04:17:58.507Z,96.78
2017-11-26T04:18:24.647Z,96.97
2017-11-26T04:18:50.793Z,96.97
2017-11-26T04:19:16.907Z,97.07
2017-11-26T04:19:43.053Z,97.26
2017-11-26T04:20:09.174Z,96.5
2017-11-26T04:20:35.288Z,96.59
2017-11-26T04:21:01.406Z,96.31
2017-11-26T04:21:27.522Z,96.31
2017-11-26T04:21:53.665Z,95.74
2017-11-26T04:22:19.788Z,95.74
2017-11-26T04:22:45.904Z,96.5
2017-11-26T04:23:12.022Z,96.03
2017-11-26T04:23:38.148Z,96.22
2017-11-26T04:24:04.264Z,95.93
2017-11-26T04:24:30.388Z,96.03
2017-11-26T04:24:56.514Z,96.22
2017-11-26T04:25:22.627Z,96.03
2017-11-26T04:25:48.752Z,96.03
2017-11-26T04:26:14.884Z,95.74
2017-11-26T04:26:40.994Z,96.12
2017-11-26T04:27:07.118Z,96.22
2017-11-26T04:27:33.230Z,96.12
2017-11-26T04:27:59.349Z,95.74
2017-11-26T04:28:25.468Z,96.12
2017-11-26T04:28:51.588Z,96.12
2017-11-26T04:29:17.711Z,95.74
2017-11-26T04:29:43.836Z,96.03
2017-11-26T04:30:09.955Z,96.12
2017-11-26T04:30:36.076Z,95.74
2017-11-26T04:31:02.212Z,95.84
2017-11-26T04:31:28.332Z,96.22
2017-11-26T04:31:54.453Z,96.5
2017-11-26T04:32:20.577Z,96.31
2017-11-26T04:32:46.700Z,96.12
2017-11-26T04:33:12.821Z,96.12
2017-11-26T04:33:38.945Z,96.22
2017-11-26T04:34:05.061Z,96.12
2017-11-26T04:34:31.175Z,96.41
2017-11-26T04:34:57.295Z,96.12
2017-11-26T04:35:23.409Z,96.31
2017-11-26T04:35:49.534Z,96.5
2017-11-26T04:36:15.655Z,96.31
2017-11-26T04:36:41.770Z,96.08
2017-11-26T04:37:07.889Z,96.31
2017-11-26T04:37:34.014Z,96.31
2017-11-26T04:38:00.128Z,96.26
2017-11-26T04:38:26.248Z,96.36
2017-11-26T04:38:52.370Z,95.6
2017-11-26T04:39:18.492Z,95.65
2017-11-26T04:39:44.613Z,95.79
2017-11-26T04:40:10.726Z,95.65
2017-11-26T04:40:36.845Z,95.93
2017-11-26T04:41:02.964Z,95.74
2017-11-26T04:41:29.080Z,95.55
2017-11-26T04:41:55.210Z,95.55
2017-11-26T04:42:21.340Z,95.36
2017-11-26T04:42:47.517Z,95.55
2017-11-26T04:43:13.623Z,95.84
2017-11-26T04:43:39.750Z,95.74
2017-11-26T04:44:05.866Z,96.22
2017-11-26T04:44:31.988Z,96.03
2017-11-26T04:44:58.111Z,95.84
2017-11-26T04:45:24.227Z,96.12
2017-11-26T04:45:50.347Z,96.31
2017-11-26T04:46:16.472Z,96.36
2017-11-26T04:46:42.584Z,95.65
2017-11-26T04:47:08.713Z,95.69
2017-11-26T04:47:34.827Z,95.41
2017-11-26T04:48:00.950Z,95.17
2017-11-26T04:48:27.065Z,95.26
2017-11-26T04:48:53.188Z,95.45
2017-11-26T04:49:19.308Z,95.69
2017-11-26T04:49:45.428Z,95.5
2017-11-26T04:50:11.555Z,95.41
2017-11-26T04:50:37.667Z,95.69
2017-11-26T04:51:03.788Z,95.55
2017-11-26T04:51:29.912Z,95.55
2017-11-26T04:51:56.052Z,95.07
2017-11-26T04:52:22.189Z,95.74
2017-11-26T04:52:48.307Z,95.5
2017-11-26T04:53:14.432Z,95.03
2017-11-26T04:53:40.571Z,94.98
2017-11-26T04:54:06.681Z,95.36
2017-11-26T04:54:32.800Z,95.74
2017-11-26T04:54:58.935Z,95.45
2017-11-26T04:55:25.070Z,95.45
2017-11-26T04:55:51.189Z,95.98
2017-11-26T04:56:17.327Z,95.93
2017-11-26T04:56:43.444Z,95.45
2017-11-26T04:57:09.574Z,95.45
2017-11-26T04:57:35.688Z,95.69
2017-11-26T04:58:01.806Z,95.74
2017-11-26T04:58:27.930Z,95.84
2017-11-26T04:58:54.090Z,95.74
2017-11-26T04:59:20.186Z,95.55
2017-11-26T04:59:46.326Z,96.31
2017-11-26T05:00:12.476Z,96.12
2017-11-26T05:00:38.590Z,95.93
2017-11-26T05:01:04.717Z,96.12
2017-11-26T05:01:30.832Z,95.84
2017-11-26T05:01:56.976Z,95.74
2017-11-26T05:02:23.080Z,95.65
2017-11-26T05:02:49.197Z,95.93
2017-11-26T05:03:15.313Z,95.93
2017-11-26T05:03:41.440Z,95.55
2017-11-26T05:04:07.565Z,95.65
2017-11-26T05:04:33.701Z,95.74
2017-11-26T05:04:59.826Z,95.84
2017-11-26T05:05:25.941Z,96.22
2017-11-26T05:05:52.148Z,95.74
2017-11-26T05:06:18.184Z,96.12
2017-11-26T05:06:44.320Z,96.59
2017-11-26T05:07:10.446Z,96.69
2017-11-26T05:07:36.569Z,96.12
2017-11-26T05:08:02.683Z,96.31
2017-11-26T05:08:28.802Z,96.5
2017-11-26T05:08:54.928Z,96.12
2017-11-26T05:09:21.050Z,96.03
2017-11-26T05:09:47.168Z,96.22
2017-11-26T05:10:13.286Z,95.93
2017-11-26T05:10:39.405Z,95.93
2017-11-26T05:11:05.537Z,96.31
2017-11-26T05:11:31.672Z,96.31
2017-11-26T05:11:57.793Z,96.03
2017-11-26T05:12:23.917Z,95.74
2017-11-26T05:12:50.040Z,95.74
2017-11-26T05:13:16.152Z,96.31
2017-11-26T05:13:42.279Z,96.22
2017-11-26T05:14:08.394Z,96.31
2017-11-26T05:14:34.508Z,96.22
2017-11-26T05:15:00.636Z,96.22
2017-11-26T05:15:26.751Z,95.93
2017-11-26T05:15:52.868Z,95.55
2017-11-26T05:16:18.996Z,95.45
2017-11-26T05:16:45.117Z,95.55
2017-11-26T05:17:11.234Z,95.74
2017-11-26T05:17:37.372Z,95.84
2017-11-26T05:18:03.489Z,95.65
2017-11-26T05:18:29.615Z,95.65
2017-11-26T05:18:55.748Z,95.55
2017-11-26T05:19:21.883Z,95.55
2017-11-26T05:19:48.010Z,95.65
2017-11-26T05:20:14.129Z,95.65
2017-11-26T05:20:40.243Z,95.74
2017-11-26T05:21:06.369Z,96.31
2017-11-26T05:21:32.489Z,95.93
2017-11-26T05:21:58.603Z,95.55
2017-11-26T05:22:24.723Z,96.03
2017-11-26T05:22:50.847Z,95.65
2017-11-26T05:23:16.969Z,95.84
2017-11-26T05:23:43.083Z,95.36
2017-11-26T05:24:09.244Z,95.26
2017-11-26T05:24:35.342Z,95.45
2017-11-26T05:25:01.470Z,95.65
2017-11-26T05:25:27.585Z,95.84
2017-11-26T05:25:53.701Z,95.74
2017-11-26T05:26:19.829Z,95.93
2017-11-26T05:26:45.951Z,95.55
2017-11-26T05:27:12.068Z,95.74
2017-11-26T05:27:38.192Z,95.26
2017-11-26T05:28:04.307Z,95.55
2017-11-26T05:28:30.434Z,95.45
2017-11-26T05:28:56.548Z,95.17
2017-11-26T05:29:22.674Z,95.36
2017-11-26T05:29:48.789Z,95.55
2017-11-26T05:30:14.912Z,95.26
2017-11-26T05:30:41.055Z,95.55
2017-11-26T05:31:07.166Z,95.36
2017-11-26T05:31:33.289Z,95.45
2017-11-26T05:31:59.409Z,95.36
2017-11-26T05:32:25.543Z,95.07
2017-11-26T05:32:51.678Z,95.55
2017-11-26T05:33:17.824Z,95.74
2017-11-26T05:33:43.943Z,95.93
2017-11-26T05:34:10.063Z,95.36
2017-11-26T05:34:36.197Z,95.36
2017-11-26T05:35:02.313Z,95.45
2017-11-26T05:35:28.428Z,94.98
2017-11-26T05:35:54.551Z,95.55
2017-11-26T05:36:20.668Z,95.65
2017-11-26T05:36:46.790Z,95.45